Time;durP1;ratioP1;P1;durP2;ratioP2;P2;SDS_P1;SDS_P2;PMS_P1;PMS_P2;Temp;Humidity;BMP_temperature;BMP_pressure;BME280_temperature;BME280_humidity;BME280_pressure;Samples;Min_cycle;Max_cycle;Signal;HPM_P1;HPM_P2
2021/07/22 00:00:51;;;;;;;7.00;6.30;;;;;;;19.53;100.00;96463.38;4976179;28;20205;-82
2021/07/22 00:03:18;;;;;;;6.53;5.93;;;;;;;19.60;100.00;96470.31;4975905;28;20725;-83
2021/07/22 00:05:46;;;;;;;7.77;6.77;;;;;;;19.75;100.00;96478.09;4975964;28;20201;-82
2021/07/22 00:08:14;;;;;;;6.70;6.00;;;;;;;19.63;100.00;96475.25;4975796;28;20291;-82
2021/07/22 00:10:42;;;;;;;9.00;6.53;;;;;;;19.50;100.00;96472.63;4975903;28;20585;-83
2021/07/22 00:13:10;;;;;;;7.97;7.17;;;;;;;19.45;100.00;96467.09;4975722;28;20193;-82
2021/07/22 00:15:38;;;;;;;7.23;6.00;;;;;;;19.32;100.00;96472.44;4975823;28;20207;-82
2021/07/22 00:18:05;;;;;;;11.40;6.80;;;;;;;19.28;100.00;96472.06;4975622;28;20686;-82
2021/07/22 00:20:32;;;;;;;7.57;5.90;;;;;;;19.27;100.00;96469.59;4975798;28;20202;-82
2021/07/22 00:23:00;;;;;;;7.10;6.40;;;;;;;19.31;100.00;96476.97;4975510;28;20225;-83
2021/07/22 00:25:28;;;;;;;8.37;6.20;;;;;;;19.45;100.00;96470.56;4975469;28;20252;-82
2021/07/22 00:27:56;;;;;;;8.13;5.93;;;;;;;19.34;100.00;96465.91;4975441;28;20201;-83
2021/07/22 00:30:23;;;;;;;7.63;6.83;;;;;;;19.27;100.00;96465.09;4975528;28;20197;-82
2021/07/22 00:32:50;;;;;;;7.63;6.57;;;;;;;19.32;100.00;96472.44;4975206;28;20729;-82
2021/07/22 00:35:18;;;;;;;7.27;6.53;;;;;;;19.20;100.00;96475.75;4975692;28;20211;-82
2021/07/22 00:37:45;;;;;;;9.20;6.50;;;;;;;19.21;100.00;96477.41;4975377;28;20248;-81
2021/07/22 00:40:13;;;;;;;7.17;5.90;;;;;;;19.36;100.00;96474.50;4975585;28;20675;-83
2021/07/22 00:42:59;;;;;;;6.60;6.00;;;;;;;19.40;100.00;96480.25;4975349;28;20225;-82
2021/07/22 00:45:27;;;;;;;7.30;6.60;;;;;;;19.35;100.00;96482.69;4975264;28;20193;-83
2021/07/22 00:47:56;;;;;;;6.37;5.73;;;;;;;19.31;100.00;96487.63;4975244;28;20277;-82
2021/07/22 00:50:23;;;;;;;7.10;6.40;;;;;;;19.29;100.00;96479.00;4975167;28;20201;-83
2021/07/22 00:52:51;;;;;;;6.83;6.03;;;;;;;19.19;100.00;96476.81;4975332;28;20228;-83
2021/07/22 00:55:19;;;;;;;6.97;6.27;;;;;;;19.21;100.00;96485.38;4975118;28;20271;-83
2021/07/22 00:57:47;;;;;;;7.87;6.73;;;;;;;19.35;100.00;96485.38;4975395;28;20201;-83
2021/07/22 01:00:16;;;;;;;7.60;6.10;;;;;;;19.42;100.00;96484.31;4974322;28;20207;-83
2021/07/22 01:02:43;;;;;;;6.43;5.87;;;;;;;19.33;100.00;96482.06;4974932;28;20264;-83
2021/07/22 01:05:11;;;;;;;6.93;6.20;;;;;;;19.35;100.00;96477.38;4974964;28;20212;-82
2021/07/22 01:07:39;;;;;;;6.23;5.63;;;;;;;19.27;100.00;96486.41;4974743;28;20247;-82
2021/07/22 01:10:08;;;;;;;6.80;5.47;;;;;;;19.16;100.00;96474.53;4974933;28;20288;-82
2021/07/22 01:12:35;;;;;;;7.23;6.53;;;;;;;19.11;100.00;96478.84;4974753;28;20211;-82
2021/07/22 01:15:02;;;;;;;6.57;5.97;;;;;;;19.13;100.00;96482.13;4975123;28;20239;-82
2021/07/22 01:17:40;;;;;;;6.83;6.10;;;;;;;19.09;100.00;96481.72;4974532;28;20284;-82
2021/07/22 01:20:14;;;;;;;8.33;6.33;;;;;;;19.20;100.00;96483.75;4974504;28;20670;-81
2021/07/22 01:22:41;;;;;;;6.90;6.20;;;;;;;19.23;100.00;96480.69;4974131;28;20303;-82
2021/07/22 01:25:09;;;;;;;6.77;6.07;;;;;;;19.19;100.00;96476.81;4974718;28;20240;-82
2021/07/22 01:27:37;;;;;;;7.13;6.47;;;;;;;19.17;100.00;96481.50;4974207;28;20251;-82
2021/07/22 01:30:06;;;;;;;11.30;6.53;;;;;;;19.24;100.00;96489.50;4974609;28;20211;-82
2021/07/22 01:32:33;;;;;;;7.30;6.43;;;;;;;19.28;100.00;96489.88;4974296;28;20201;-83
2021/07/22 01:35:01;;;;;;;8.13;6.40;;;;;;;19.45;100.00;96488.41;4974406;28;20697;-83
2021/07/22 01:37:30;;;;;;;7.53;6.63;;;;;;;19.46;100.00;96490.88;4974169;28;20670;-83
2021/07/22 01:39:57;;;;;;;8.30;6.00;;;;;;;19.34;100.00;96481.88;4974257;28;20197;-82
2021/07/22 01:42:25;;;;;;;8.97;6.40;;;;;;;19.30;100.00;96486.00;4973917;28;20197;-82
2021/07/22 01:44:52;;;;;;;7.50;6.63;;;;;;;19.16;100.00;96477.22;4974535;28;20208;-82
2021/07/22 01:47:19;;;;;;;7.10;6.40;;;;;;;19.05;100.00;96477.84;4973931;28;20201;-81
2021/07/22 01:49:46;;;;;;;6.90;5.97;;;;;;;19.09;100.00;96483.56;4974182;28;20211;-82
2021/07/22 01:52:14;;;;;;;7.00;6.30;;;;;;;19.06;100.00;96482.13;4973687;28;20651;-82
2021/07/22 01:54:42;;;;;;;6.70;6.00;;;;;;;18.99;100.00;96486.66;4974078;28;20582;-82
2021/07/22 01:57:10;;;;;;;5.63;5.07;;;;;;;18.88;100.00;96487.28;4974010;28;20231;-82
2021/07/22 01:59:37;;;;;;;9.00;7.43;;;;;;;18.87;100.00;96485.63;4973729;28;20198;-82
2021/07/22 02:02:05;;;;;;;8.67;6.27;;;;;;;18.93;100.00;96484.81;4973953;28;20255;-82
2021/07/22 02:04:33;;;;;;;7.00;6.33;;;;;;;19.13;100.00;96495.44;4973866;28;20264;-83
2021/07/22 02:07:01;;;;;;;6.67;6.07;;;;;;;19.21;100.00;96493.38;4973728;28;20204;-82
2021/07/22 02:09:29;;;;;;;6.83;6.13;;;;;;;19.25;100.00;96494.59;4973748;28;20205;-83
2021/07/22 02:11:59;;;;;;;7.47;6.77;;;;;;;19.31;100.00;96495.63;4972715;28;20241;-82
2021/07/22 02:14:27;;;;;;;7.60;6.80;;;;;;;19.33;100.00;96498.06;4974254;28;20388;-84
2021/07/22 02:16:54;;;;;;;8.37;6.17;;;;;;;19.39;100.00;96499.91;4973409;28;20640;-83
2021/07/22 02:19:22;;;;;;;7.33;6.63;;;;;;;19.24;100.00;96498.28;4973670;28;20216;-82
2021/07/22 02:21:49;;;;;;;7.00;6.40;;;;;;;19.16;100.00;96501.19;4973696;28;20236;-82
2021/07/22 02:24:16;;;;;;;8.00;5.90;;;;;;;19.24;100.00;96497.47;4973437;28;20268;-82
2021/07/22 02:26:44;;;;;;;5.83;5.33;;;;;;;19.25;100.00;96494.59;4973574;28;20197;-82
2021/07/22 02:29:13;;;;;;;6.70;6.10;;;;;;;19.18;100.00;96496.44;4973446;28;20288;-82
2021/07/22 02:31:40;;;;;;;7.83;6.17;;;;;;;19.07;100.00;96496.28;4973491;28;20240;-83
2021/07/22 02:34:07;;;;;;;6.43;5.80;;;;;;;19.05;100.00;96492.97;4973325;28;20238;-83
2021/07/22 02:36:36;;;;;;;7.20;6.50;;;;;;;18.93;100.00;96480.28;4973533;28;20205;-83
2021/07/22 02:39:03;;;;;;;6.87;6.10;;;;;;;19.03;100.00;96484.41;4973397;28;20269;-83
2021/07/22 02:41:32;;;;;;;6.97;6.13;;;;;;;18.91;100.00;96493.00;4973041;28;20725;-83
2021/07/22 02:43:59;;;;;;;6.40;5.80;;;;;;;18.52;100.00;96499.91;4973177;28;20229;-83
2021/07/22 02:46:28;;;;;;;10.20;6.73;;;;;;;18.50;100.00;96493.16;4973475;28;20289;-83
2021/07/22 02:48:57;;;;;;;6.40;5.80;;;;;;;18.59;100.00;96496.44;4973144;28;20205;-83
2021/07/22 02:51:25;;;;;;;7.50;6.20;;;;;;;18.69;100.00;96491.53;4972958;28;20630;-82
2021/07/22 02:53:52;;;;;;;7.27;6.33;;;;;;;18.80;100.00;96498.13;4973151;28;20197;-82
2021/07/22 02:56:20;;;;;;;7.80;6.47;;;;;;;18.58;100.00;96505.44;4973132;28;20201;-83
2021/07/22 02:58:47;;;;;;;6.90;6.20;;;;;;;18.33;100.00;96502.56;4972843;28;20670;-82
2021/07/22 03:01:17;;;;;;;8.33;5.60;;;;;;;18.51;100.00;96508.09;4973111;28;20243;-82
2021/07/22 03:03:46;;;;;;;8.77;6.30;;;;;;;18.67;100.00;96515.72;4973107;28;20705;-82
2021/07/22 03:06:16;;;;;;;6.57;5.87;;;;;;;18.83;100.00;96524.34;4973328;28;20222;-82
2021/07/22 03:08:43;;;;;;;5.93;5.33;;;;;;;18.87;100.00;96514.91;4973415;28;20227;-82
2021/07/22 03:11:11;;;;;;;6.77;6.17;;;;;;;18.86;100.00;96526.59;4972879;28;20216;-82
2021/07/22 03:13:39;;;;;;;5.67;5.10;;;;;;;18.83;100.00;96524.34;4972940;28;20207;-82
2021/07/22 03:16:07;;;;;;;5.83;5.30;;;;;;;18.87;100.00;96522.91;4973020;28;20205;-82
2021/07/22 03:18:35;;;;;;;6.03;5.43;;;;;;;18.89;100.00;96519.03;4972797;28;20229;-82
2021/07/22 03:21:05;;;;;;;6.63;5.93;;;;;;;18.81;100.00;96521.06;4972690;28;20240;-82
2021/07/22 03:23:32;;;;;;;7.23;5.80;;;;;;;18.84;100.00;96518.78;4973659;28;20225;-81
2021/07/22 03:26:00;;;;;;;7.57;5.50;;;;;;;18.95;100.00;96520.88;4976818;28;20284;-83
2021/07/22 03:28:28;;;;;;;7.17;5.67;;;;;;;18.89;100.00;96529.69;4976800;28;20255;-83
2021/07/22 03:30:55;;;;;;;7.47;5.83;;;;;;;18.91;100.00;96529.47;4976863;28;20201;-83
2021/07/22 03:33:22;;;;;;;7.00;6.20;;;;;;;18.98;100.00;96530.28;4976344;28;20229;-83
2021/07/22 03:35:49;;;;;;;7.03;6.33;;;;;;;18.89;100.00;96535.00;4976628;28;20205;-83
2021/07/22 03:38:18;;;;;;;5.93;5.33;;;;;;;18.92;100.00;96531.13;4976439;28;20292;-84
2021/07/22 03:40:45;;;;;;;6.80;6.13;;;;;;;18.88;100.00;96536.03;4975460;28;20201;-83
2021/07/22 03:43:12;;;;;;;6.13;5.53;;;;;;;18.81;100.00;96529.88;4975822;28;20221;-83
2021/07/22 03:45:40;;;;;;;7.03;6.20;;;;;;;18.84;100.00;96526.78;4980286;28;20204;-83
2021/07/22 03:48:07;;;;;;;9.33;6.03;;;;;;;18.96;100.00;96532.34;4995388;28;20763;-86
2021/07/22 03:50:34;;;;;;;7.13;6.43;;;;;;;18.88;100.00;96537.88;4995717;28;20197;-86
2021/07/22 03:53:01;;;;;;;6.10;5.50;;;;;;;18.83;100.00;96537.66;4995613;28;20211;-86
2021/07/22 03:55:30;;;;;;;6.10;5.50;;;;;;;18.75;100.00;96547.47;4995650;28;20674;-85
2021/07/22 03:57:58;;;;;;;6.47;5.70;;;;;;;18.81;100.00;96539.69;4995517;28;20303;-86
2021/07/22 04:00:25;;;;;;;5.93;5.37;;;;;;;18.89;100.00;96534.19;4995401;28;20287;-84
2021/07/22 04:03:00;;;;;;;11.50;6.30;;;;;;;18.88;100.00;96535.22;4993170;28;20258;-81
2021/07/22 04:05:28;;;;;;;7.03;6.23;;;;;;;18.93;100.00;96541.56;4993366;28;20192;-80
2021/07/22 04:07:57;;;;;;;7.10;6.37;;;;;;;19.03;100.00;96543.81;4994302;28;20246;-80
2021/07/22 04:10:25;;;;;;;7.80;5.53;;;;;;;18.95;100.00;96538.69;4994417;28;20204;-80
2021/07/22 04:12:59;;;;;;;6.77;5.33;;;;;;;19.02;100.00;96536.84;4993985;28;20227;-80
2021/07/22 04:15:27;;;;;;;7.20;6.43;;;;;;;18.97;100.00;96533.97;4994344;28;20247;-80
2021/07/22 04:17:55;;;;;;;6.93;6.10;;;;;;;18.92;100.00;96544.44;4993825;28;20792;-81
2021/07/22 04:20:25;;;;;;;6.50;5.27;;;;;;;18.86;100.00;96542.59;4994098;28;20211;-80
2021/07/22 04:22:53;;;;;;;6.53;5.93;;;;;;;18.83;100.00;96540.31;4994742;28;20206;-81
2021/07/22 04:25:20;;;;;;;6.83;5.50;;;;;;;18.65;100.00;96532.91;4994966;28;20227;-80
2021/07/22 04:27:47;;;;;;;7.60;5.53;;;;;;;18.65;100.00;96523.06;4974155;28;20339;-81
2021/07/22 04:30:16;;;;;;;6.50;5.40;;;;;;;18.63;100.00;96514.44;4975305;28;20216;-81
2021/07/22 04:32:46;;;;;;;7.03;5.90;;;;;;;18.79;100.00;96531.09;4975774;28;20201;-81
2021/07/22 04:35:14;;;;;;;5.80;5.07;;;;;;;18.68;100.00;96535.97;4974958;28;20190;-80
2021/07/22 04:37:42;;;;;;;7.73;5.80;;;;;;;18.46;100.00;96537.16;4975363;28;20197;-80
2021/07/22 04:40:09;;;;;;;7.10;5.87;;;;;;;18.40;100.00;96516.69;4975359;28;20738;-80
2021/07/22 04:42:37;;;;;;;11.37;5.80;;;;;;;18.33;100.00;96515.84;4975273;28;20228;-80
2021/07/22 04:45:05;;;;;;;5.93;5.13;;;;;;;18.41;100.00;96534.28;4975354;28;20275;-81
2021/07/22 04:47:34;;;;;;;7.47;4.67;;;;;;;18.51;100.00;96537.38;4975172;28;20240;-80
2021/07/22 04:50:02;;;;;;;5.93;4.50;;;;;;;18.63;100.00;96538.41;4975285;28;20650;-80
2021/07/22 04:52:29;;;;;;;5.80;4.53;;;;;;;18.74;100.00;96551.19;4974959;28;20201;-79
2021/07/22 04:54:56;;;;;;;5.33;4.83;;;;;;;18.87;100.00;96549.53;4975573;28;20201;-80
2021/07/22 04:57:24;;;;;;;4.27;3.87;;;;;;;18.92;100.00;96561.22;4975587;28;20284;-80
2021/07/22 04:59:51;;;;;;;4.30;3.90;;;;;;;18.99;100.00;96562.06;4975444;28;20228;-80
2021/07/22 05:02:19;;;;;;;4.80;4.40;;;;;;;19.10;100.00;96560.63;4974849;28;20212;-80
2021/07/22 05:04:48;;;;;;;4.83;3.67;;;;;;;19.08;100.00;96567.16;4975023;28;20233;-79
2021/07/22 05:07:15;;;;;;;11.07;4.07;;;;;;;19.05;100.00;96563.09;4975012;28;20749;-80
2021/07/22 05:09:42;;;;;;;5.13;4.67;;;;;;;19.24;100.00;96564.91;4974675;28;20248;-79
2021/07/22 05:12:10;;;;;;;5.00;4.33;;;;;;;19.25;100.00;96573.72;4974918;28;20719;-79
2021/07/22 05:14:37;;;;;;;4.83;4.30;;;;;;;19.34;100.00;96569.84;4975140;28;20256;-79
2021/07/22 05:17:05;;;;;;;5.10;4.60;;;;;;;19.43;100.00;96573.09;4974430;28;20267;-79
2021/07/22 05:19:32;;;;;;;5.10;4.60;;;;;;;19.52;100.00;96573.72;4974954;28;20268;-79
2021/07/22 05:22:03;;;;;;;4.87;4.47;;;;;;;19.63;100.00;96570.44;4974560;28;20232;-79
2021/07/22 05:24:30;;;;;;;4.67;4.27;;;;;;;19.66;100.00;96573.50;4974650;28;20215;-79
2021/07/22 05:26:57;;;;;;;5.40;4.70;;;;;;;19.75;100.00;96570.63;4974512;28;20251;-79
2021/07/22 05:29:25;;;;;;;7.30;4.93;;;;;;;19.81;100.00;96577.78;4974374;28;20197;-79
2021/07/22 05:31:52;;;;;;;4.90;4.40;;;;;;;19.91;100.00;96578.97;4974346;28;20741;-79
2021/07/22 05:34:19;;;;;;;5.30;4.80;;;;;;;20.06;100.00;96586.75;4974491;28;20212;-79
2021/07/22 05:36:46;;;;;;;5.83;4.17;;;;;;;20.15;100.00;96585.47;4974103;28;20292;-80
2021/07/22 05:39:15;;;;;;;8.17;4.23;;;;;;;20.22;100.00;96587.31;4974334;28;20205;-81
2021/07/22 05:41:42;;;;;;;5.77;4.90;;;;;;;20.36;100.00;96591.53;4974291;28;20296;-81
2021/07/22 05:44:10;;;;;;;6.07;5.10;;;;;;;20.48;100.00;96592.53;4974184;28;20225;-81
2021/07/22 05:46:37;;;;;;;7.97;5.10;;;;;;;20.67;100.00;96598.81;4974145;28;20204;-80
2021/07/22 05:49:05;;;;;;;4.53;4.13;;;;;;;20.79;100.00;96605.13;4973857;28;20212;-81
2021/07/22 05:51:32;;;;;;;5.90;4.77;;;;;;;20.56;100.00;96605.66;4974295;28;20201;-80
2021/07/22 05:54:00;;;;;;;7.67;5.07;;;;;;;20.55;100.00;96609.38;4973984;28;20287;-80
2021/07/22 05:56:29;;;;;;;5.50;4.43;;;;;;;20.74;100.00;96604.94;4974396;28;20197;-80
2021/07/22 05:58:56;;;;;;;5.40;4.90;;;;;;;20.90;100.00;96612.44;4973685;28;20201;-80
2021/07/22 06:01:23;;;;;;;5.67;4.50;;;;;;;21.23;100.00;96615.91;4974052;28;20240;-80
2021/07/22 06:03:51;;;;;;;5.63;4.83;;;;;;;21.60;100.00;96617.69;4973761;28;20255;-80
2021/07/22 06:06:18;;;;;;;5.70;4.60;;;;;;;21.54;100.00;96615.09;4973919;28;20296;-80
2021/07/22 06:08:45;;;;;;;5.83;5.27;;;;;;;21.67;100.00;96622.19;4973475;28;20197;-80
2021/07/22 06:11:13;;;;;;;6.53;5.33;;;;;;;21.86;100.00;96629.22;4974138;28;20276;-81
2021/07/22 06:13:42;;;;;;;4.60;4.20;;;;;;;22.13;100.00;96634.28;4973878;28;20209;-81
2021/07/22 06:16:11;;;;;;;5.47;4.33;;;;;;;22.10;100.00;96627.53;4973755;28;20293;-80
2021/07/22 06:18:38;;;;;;;5.57;5.07;;;;;;;22.26;100.00;96628.81;4973237;28;20248;-80
2021/07/22 06:21:06;;;;;;;5.13;4.60;;;;;;;22.48;100.00;96631.81;4973646;28;20204;-80
2021/07/22 06:23:34;;;;;;;4.97;4.27;;;;;;;22.58;100.00;96625.94;4971281;28;20275;-81
2021/07/22 06:26:02;;;;;;;30.93;5.37;;;;;;;22.25;100.00;96627.19;4973060;28;20271;-81
2021/07/22 06:28:30;;;;;;;4.90;4.50;;;;;;;22.53;100.00;96630.13;4973061;28;20291;-81
2021/07/22 06:30:58;;;;;;;5.23;4.77;;;;;;;22.47;100.00;96630.22;4973508;28;20674;-81
2021/07/22 06:33:26;;;;;;;5.40;4.90;;;;;;;22.58;100.00;96629.44;4973330;28;20233;-81
2021/07/22 06:35:53;;;;;;;7.73;5.63;;;;;;;22.88;100.00;96625.97;4973188;28;20197;-81
2021/07/22 06:38:20;;;;;;;5.23;4.73;;;;;;;23.16;100.00;96614.66;4973233;28;20204;-81
2021/07/22 06:40:48;;;;;;;4.30;3.90;;;;;;;22.79;100.00;96618.25;4973627;28;20197;-80
2021/07/22 06:43:15;;;;;;;3.93;3.63;;;;;;;22.61;100.00;96623.63;4973212;28;20201;-81
2021/07/22 06:45:43;;;;;;;5.60;3.50;;;;;;;22.16;100.00;96632.00;4973247;28;20271;-80
2021/07/22 06:48:12;;;;;;;5.63;3.83;;;;;;;22.70;100.00;96627.66;4973157;28;20685;-81
2021/07/22 06:50:39;;;;;;;4.13;3.80;;;;;;;23.18;100.00;96634.03;4973255;28;20259;-81
2021/07/22 06:53:07;;;;;;;7.03;3.90;;;;;;;23.77;100.00;96634.94;4972907;28;20690;-81
2021/07/22 06:55:37;;;;;;;6.10;3.90;;;;;;;24.10;100.00;96637.03;4973267;28;20288;-81
2021/07/22 06:58:06;;;;;;;3.63;3.33;;;;;;;24.12;100.00;96639.50;4972735;28;20680;-81
2021/07/22 07:00:34;;;;;;;3.80;3.50;;;;;;;23.82;100.00;96642.28;4972937;28;20197;-81
2021/07/22 07:03:05;;;;;;;4.17;3.73;;;;;;;23.87;100.00;96643.25;4973025;28;20200;-81
2021/07/22 07:05:34;;;;;;;4.53;4.13;;;;;;;24.16;100.00;96648.69;4973051;28;20239;-81
2021/07/22 07:08:01;;;;;;;3.90;3.57;;;;;;;24.40;100.00;96639.59;4973305;28;20648;-81
2021/07/22 07:10:29;;;;;;;3.83;3.50;;;;;;;24.44;100.00;96634.56;4972834;28;20211;-81
2021/07/22 07:12:57;;;;;;;5.13;4.63;;;;;;;24.56;100.00;96648.78;4973191;28;20641;-81
2021/07/22 07:15:24;;;;;;;4.83;4.37;;;;;;;24.42;100.00;96631.31;4972926;28;20288;-81
2021/07/22 07:17:52;;;;;;;4.87;3.90;;;;;;;24.27;100.00;96636.31;4972387;28;20327;-81
2021/07/22 07:20:19;;;;;;;5.07;4.57;;;;;;;24.67;100.00;96645.25;4972898;28;20201;-81
2021/07/22 07:22:50;;;;;;;4.30;3.80;;;;;;;24.36;100.00;96646.47;4972803;28;20293;-81
2021/07/22 07:25:18;;;;;;;4.30;3.90;;;;;;;24.12;100.00;96651.03;4973200;28;20209;-81
2021/07/22 07:27:45;;;;;;;4.10;3.70;;;;;;;24.51;100.00;96645.16;4971471;28;20239;-81
2021/07/22 07:30:14;;;;;;;4.27;3.73;;;;;;;24.34;100.00;96645.88;4972785;28;20264;-81
2021/07/22 07:32:41;;;;;;;4.40;4.00;;;;;;;24.39;100.00;96645.19;4972845;28;20201;-81
2021/07/22 07:35:09;;;;;;;4.20;3.83;;;;;;;24.20;100.00;96642.63;4971877;28;20243;-82
2021/07/22 07:37:36;;;;;;;3.97;3.50;;;;;;;23.82;100.00;96642.28;4972730;28;20582;-81
2021/07/22 07:40:06;;;;;;;3.80;3.50;;;;;;;23.70;100.00;96640.44;4972779;28;20263;-81
2021/07/22 07:42:36;;;;;;;4.07;3.63;;;;;;;23.76;100.00;96648.59;4973080;28;20688;-81
2021/07/22 07:45:05;;;;;;;3.97;3.17;;;;;;;23.69;100.00;96637.97;4972692;28;20224;-81
2021/07/22 07:47:33;;;;;;;3.50;3.20;;;;;;;24.07;100.00;96652.78;4972537;28;20205;-81
2021/07/22 07:50:00;;;;;;;4.20;3.70;;;;;;;23.67;100.00;96640.91;4972710;28;20205;-81
2021/07/22 07:52:28;;;;;;;4.17;3.67;;;;;;;24.08;100.00;96657.13;4972842;28;20260;-82
2021/07/22 07:54:56;;;;;;;4.57;3.50;;;;;;;24.73;100.00;96659.59;4972463;28;20204;-82
2021/07/22 07:57:24;;;;;;;5.60;3.90;;;;;;;24.86;100.00;96648.53;4972791;28;20284;-81
2021/07/22 07:59:52;;;;;;;4.60;3.57;;;;;;;24.77;100.00;96644.63;4972589;28;20207;-81
2021/07/22 08:02:19;;;;;;;4.37;3.97;;;;;;;25.34;100.00;96647.28;4972454;28;20299;-81
2021/07/22 08:04:46;;;;;;;5.33;3.90;;;;;;;25.18;100.00;96645.38;4972831;28;20253;-81
2021/07/22 08:07:13;;;;;;;5.60;3.60;;;;;;;25.01;100.00;96648.03;4972400;28;20873;-81
2021/07/22 08:09:41;;;;;;;3.63;3.33;;;;;;;25.29;100.00;96649.91;4972581;28;20205;-82
2021/07/22 08:12:08;;;;;;;3.00;2.80;;;;;;;25.53;100.00;96653.28;4975924;28;20201;-81
2021/07/22 08:14:37;;;;;;;3.00;2.80;;;;;;;25.91;100.00;96656.28;4976006;28;20236;-82
2021/07/22 08:17:06;;;;;;;3.67;3.37;;;;;;;25.69;100.00;96661.59;4975547;28;20205;-81
2021/07/22 08:19:33;;;;;;;3.47;3.17;;;;;;;25.54;100.00;96664.84;4975944;28;20181;-82
2021/07/22 08:22:01;;;;;;;3.57;3.27;;;;;;;25.92;100.00;96671.41;4975577;28;20578;-82
2021/07/22 08:24:28;;;;;;;2.80;2.60;;;;;;;26.21;100.00;96667.50;4975765;28;20201;-82
2021/07/22 08:26:55;;;;;;;3.57;3.20;;;;;;;26.42;100.00;96670.50;4975319;28;20258;-82
2021/07/22 08:29:22;;;;;;;3.05;2.85;;;;;;;26.08;100.00;96670.56;4975788;28;20239;-82
2021/07/22 08:31:51;;;;;;;3.92;3.53;;;;;;;25.90;100.00;96676.22;4975783;28;20219;-81
2021/07/22 08:34:20;;;;;;;3.40;2.73;;;;;;;26.02;100.00;96672.38;4975653;28;20209;-81
2021/07/22 08:36:47;;;;;;;3.80;3.28;;;;;;;25.83;100.00;96663.72;4975592;28;20288;-81
2021/07/22 08:39:14;;;;;;;3.30;2.97;;;;;;;25.91;100.00;96673.28;4975519;28;20678;-81
2021/07/22 08:41:46;;;;;;;3.65;3.20;;;;;;;26.20;100.00;96679.38;4975554;28;20189;-81
2021/07/22 08:44:14;;;;;;;3.38;3.05;;;;;;;25.67;100.00;96669.91;4975434;28;20236;-81
2021/07/22 08:46:42;;;;;;;3.00;2.80;;;;;;;24.76;100.00;96666.34;4975373;28;20711;-82
2021/07/22 08:49:12;;;;;;;3.20;2.90;;;;;;;24.97;100.00;96668.38;4974726;28;20197;-81
2021/07/22 08:51:39;;;;;;;3.20;2.90;;;;;;;25.72;100.00;96666.47;4975193;28;20215;-81
2021/07/22 08:54:06;;;;;;;2.50;2.30;;;;;;;25.82;100.00;96670.19;4981344;28;20307;-81
2021/07/22 08:56:34;;;;;;;3.17;2.70;;;;;;;26.38;100.00;96675.56;4993216;28;20686;-81
2021/07/22 08:59:03;;;;;;;3.30;3.00;;;;;;;26.40;100.00;96684.22;4992619;28;20200;-81
2021/07/22 09:01:34;;;;;;;2.97;2.65;;;;;;;26.42;100.00;96675.88;4994085;28;20200;-81
2021/07/22 09:04:01;;;;;;;4.43;2.42;;;;;;;26.36;100.00;96677.72;4994421;28;20320;-81
2021/07/22 09:06:30;;;;;;;3.00;2.75;;;;;;;26.75;100.00;96672.28;4994488;28;20227;-81
2021/07/22 09:08:57;;;;;;;2.88;2.58;;;;;;;26.16;100.00;96672.84;4994286;28;20286;-81
2021/07/22 09:11:24;;;;;;;2.60;2.40;;;;;;;25.96;100.00;96670.66;4994514;28;20200;-81
2021/07/22 09:14:09;;;;;;;2.85;2.42;;;;;;;25.54;100.00;96668.34;4994219;28;20205;-81
2021/07/22 09:16:37;;;;;;;3.47;2.70;;;;;;;25.94;100.00;96671.97;4993250;28;20581;-80
2021/07/22 09:19:04;;;;;;;3.15;2.47;;;;;;;26.32;100.00;96666.63;4994085;28;20242;-81
2021/07/22 09:21:32;;;;;;;3.90;2.53;;;;;;;26.28;100.00;96662.75;4994140;28;20226;-81
2021/07/22 09:24:05;;;;;;;3.22;2.40;;;;;;;26.61;100.00;96657.56;4994318;28;20232;-81
2021/07/22 09:26:33;;;;;;;2.70;2.33;;;;;;;26.71;100.00;96657.69;4993898;28;20336;-81
2021/07/22 09:29:09;;;;;;;2.50;2.30;;;;;;;26.49;100.00;96669.25;4994085;28;20207;-81
2021/07/22 09:31:36;;;;;;;2.85;2.28;;;;;;;26.44;100.00;96663.78;4994074;28;20188;-81
2021/07/22 09:34:04;;;;;;;2.58;2.38;;;;;;;26.15;100.00;96660.44;4993857;28;20200;-81
2021/07/22 09:36:34;;;;;;;2.50;2.30;;;;;;;26.84;100.00;96646.50;4993689;28;20196;-81
2021/07/22 09:39:17;;;;;;;2.90;2.60;;;;;;;26.60;100.00;96645.94;4993885;28;20744;-82
2021/07/22 09:41:44;;;;;;;2.78;2.50;;;;;;;25.97;100.00;96641.84;4991918;28;20206;-82
2021/07/22 09:44:33;;;;;;;3.38;2.40;;;;;;;26.51;100.00;96647.47;4993778;28;20207;-81
2021/07/22 09:47:02;;;;;;;3.17;2.53;;;;;;;26.72;100.00;96643.94;4993180;28;20208;-81
2021/07/22 09:49:34;;;;;;;4.22;2.60;;;;;;;26.47;100.00;96657.13;4993773;28;20231;-82
2021/07/22 09:52:04;;;;;;;2.28;2.08;;;;;;;26.07;100.00;96650.88;4993455;28;20675;-81
2021/07/22 09:54:35;;;;;;;4.25;2.50;;;;;;;26.08;100.00;96649.00;4993396;28;20195;-81
2021/07/22 09:57:04;;;;;;;2.83;2.60;;;;;;;25.76;100.00;96648.78;4993400;28;20185;-81
2021/07/22 09:59:32;;;;;;;3.25;2.22;;;;;;;25.21;100.00;96642.22;4993708;28;20666;-81
2021/07/22 10:02:05;;;;;;;3.00;2.00;;;;;;;25.13;100.00;96645.31;4993555;28;20641;-81
2021/07/22 10:04:33;;;;;;;3.50;2.40;;;;;;;25.60;100.00;96642.34;4993216;28;20246;-81
2021/07/22 10:07:03;;;;;;;2.53;2.33;;;;;;;25.64;100.00;96634.59;4993069;28;20224;-81
2021/07/22 10:09:35;;;;;;;3.75;2.38;;;;;;;25.84;100.00;96643.03;4993620;28;20601;-81
2021/07/22 10:12:03;;;;;;;2.38;2.15;;;;;;;25.52;100.00;96640.84;4993129;28;20188;-81
2021/07/22 10:14:33;;;;;;;2.35;2.17;;;;;;;25.60;100.00;96640.47;4992994;28;20566;-81
2021/07/22 10:17:03;;;;;;;3.17;2.10;;;;;;;25.73;100.00;96635.81;4992744;28;20202;-81
2021/07/22 10:19:32;;;;;;;2.13;2.03;;;;;;;26.17;100.00;96644.84;4993251;28;20193;-81
2021/07/22 10:22:03;;;;;;;2.75;2.53;;;;;;;26.69;100.00;96644.44;4992886;28;20295;-80
2021/07/22 10:24:31;;;;;;;2.75;2.50;;;;;;;26.94;100.00;96645.78;4993196;28;20193;-81
2021/07/22 10:27:02;;;;;;;2.63;2.42;;;;;;;26.81;100.00;96647.03;4992781;28;20228;-81
2021/07/22 10:29:30;;;;;;;3.03;2.72;;;;;;;26.87;100.00;96632.50;4993136;28;20283;-81
2021/07/22 10:31:58;;;;;;;3.05;2.78;;;;;;;26.42;100.00;96644.34;4993116;28;20608;-81
2021/07/22 10:34:27;;;;;;;3.92;2.70;;;;;;;26.20;100.00;96641.66;4992357;28;20279;-83
2021/07/22 10:36:55;;;;;;;2.47;2.33;;;;;;;25.87;100.00;96639.00;4992628;28;20192;-82
2021/07/22 10:39:57;;;;;;;2.70;2.47;;;;;;;25.88;100.00;96629.88;4992856;28;20211;-81
2021/07/22 10:42:45;;;;;;;3.80;2.60;;;;;;;26.56;100.00;96636.75;4992364;28;20206;-81
2021/07/22 10:45:29;;;;;;;2.90;2.63;;;;;;;26.63;100.00;96645.44;4992759;28;20188;-82
2021/07/22 10:48:26;;;;;;;5.38;2.47;;;;;;;27.17;100.00;96642.03;4992604;28;20188;-81
2021/07/22 10:51:03;;;;;;;3.03;1.98;;;;;;;26.98;100.00;96642.34;4993008;28;20231;-82
2021/07/22 10:53:45;;;;;;;3.53;2.17;;;;;;;26.80;100.00;96648.88;4992739;28;20184;-82
2021/07/22 10:56:13;;;;;;;3.35;2.92;;;;;;;26.62;100.00;96657.31;4992693;28;20187;-82
2021/07/22 10:59:00;;;;;;;6.35;2.47;;;;;;;26.93;100.00;96646.88;4992460;28;20207;-82
2021/07/22 11:01:53;;;;;;;2.70;2.47;;;;;;;26.20;100.00;96644.34;4992921;28;20192;-81
2021/07/22 11:04:45;;;;;;;4.65;2.60;;;;;;;25.89;100.00;96644.97;4986147;28;20204;-82
2021/07/22 11:07:26;;;;;;;4.25;3.10;;;;;;;25.66;100.00;96649.44;4985557;28;20323;-82
2021/07/22 11:09:58;;;;;;;2.58;2.38;;;;;;;25.67;100.00;96648.38;4992627;28;20188;-80
2021/07/22 11:12:44;;;;;;;3.03;2.45;;;;;;;25.27;100.00;96648.50;4992482;28;20623;-79
2021/07/22 11:15:16;;;;;;;3.70;2.72;;;;;;;25.18;100.00;96642.69;4992745;28;20192;-79
2021/07/22 11:17:45;;;;;;;2.70;2.50;;;;;;;25.07;100.00;96640.84;4992477;28;20249;-80
2021/07/22 11:20:35;;;;;;;2.42;2.22;;;;;;;24.70;100.00;96645.81;4992318;28;20240;-79
2021/07/22 11:23:16;;;;;;;4.35;2.70;;;;;;;24.64;100.00;96639.53;4992355;28;20188;-79
2021/07/22 11:25:48;;;;;;;3.85;2.70;;;;;;;24.60;100.00;96647.25;4992561;28;20231;-82
2021/07/22 11:28:25;;;;;;;3.65;2.78;;;;;;;24.62;100.00;96638.94;4992011;28;20192;-82
2021/07/22 11:31:07;;;;;;;3.87;2.73;;;;;;;24.90;100.00;96633.59;4992665;28;20645;-82
2021/07/22 11:33:35;;;;;;;3.05;2.45;;;;;;;25.26;100.00;96638.81;4992185;28;20211;-80